Time;durP1;ratioP1;P1;durP2;ratioP2;P2;SDS_P1;SDS_P2;PMS_P1;PMS_P2;Temp;Humidity;BMP_temperature;BMP_pressure;BME280_temperature;BME280_humidity;BME280_pressure;Samples;Min_cycle;Max_cycle;Signal;HPM_P1;HPM_P2
2022/10/25 00:00:21;;;;;;;15.60;7.28;;;12.90;99.90;;;;;;5112165;28;20306;-74
2022/10/25 00:02:46;;;;;;;15.73;7.18;;;12.80;99.90;;;;;;5093809;28;20031;-76
2022/10/25 00:05:14;;;;;;;14.00;7.05;;;12.80;99.90;;;;;;5088335;28;20044;-75
2022/10/25 00:07:40;;;;;;;13.73;7.60;;;12.90;99.90;;;;;;5102788;28;20089;-75
2022/10/25 00:10:06;;;;;;;15.80;7.25;;;12.70;99.90;;;;;;5085993;28;20024;-73
2022/10/25 00:12:32;;;;;;;22.80;8.70;;;12.70;99.90;;;;;;5100275;28;20016;-74
2022/10/25 00:15:02;;;;;;;12.27;7.10;;;12.70;99.90;;;;;;5100889;28;20040;-74
2022/10/25 00:17:27;;;;;;;19.15;7.70;;;12.70;99.90;;;;;;5089257;28;20032;-73
2022/10/25 00:19:53;;;;;;;16.38;8.35;;;12.90;99.90;;;;;;5115867;28;20027;-73
2022/10/25 00:22:19;;;;;;;15.75;8.48;;;12.90;99.90;;;;;;5087897;28;20066;-75
2022/10/25 00:24:44;;;;;;;19.50;8.57;;;12.90;99.90;;;;;;5083291;28;20028;-72
2022/10/25 00:27:15;;;;;;;17.08;8.88;;;13.00;99.90;;;;;;5087174;28;20035;-74
2022/10/25 00:29:41;;;;;;;20.33;9.45;;;12.80;99.90;;;;;;5069647;28;20056;-73
2022/10/25 00:35:28;;;;;;;14.48;8.60;;;12.90;99.90;;;;;;5088136;27;20054;-76
2022/10/25 00:37:54;;;;;;;18.40;9.30;;;12.90;99.90;;;;;;5086125;28;20028;-74
2022/10/25 00:40:19;;;;;;;17.23;10.15;;;12.90;99.90;;;;;;5111741;28;20081;-73
2022/10/25 00:42:45;;;;;;;20.17;10.73;;;12.70;99.90;;;;;;5102379;28;20050;-73
2022/10/25 00:45:27;;;;;;;23.00;10.13;;;12.90;99.90;;;;;;5106187;28;20032;-72
2022/10/25 00:48:03;;;;;;;20.67;10.90;;;12.70;99.90;;;;;;5092373;28;20032;-73
2022/10/25 00:50:41;;;;;;;21.02;9.55;;;12.70;99.90;;;;;;5088991;28;20080;-74
2022/10/25 00:53:28;;;;;;;14.50;9.60;;;12.70;99.90;;;;;;5104355;28;20070;-74
2022/10/25 00:56:11;;;;;;;20.77;11.40;;;12.70;99.90;;;;;;5118474;28;20043;-71
2022/10/25 00:58:38;;;;;;;26.95;12.43;;;12.80;99.90;;;;;;5114180;28;20051;-74
2022/10/25 01:01:07;;;;;;;23.58;11.00;;;13.00;99.90;;;;;;5091882;28;20046;-73
2022/10/25 01:03:35;;;;;;;24.48;12.48;;;12.90;99.90;;;;;;5113944;28;20051;-74
2022/10/25 01:06:06;;;;;;;23.15;11.50;;;13.00;99.90;;;;;;5111824;28;20111;-75
2022/10/25 01:08:33;;;;;;;24.17;12.75;;;12.90;99.90;;;;;;5118451;28;20061;-76
2022/10/25 01:10:59;;;;;;;21.65;11.85;;;13.00;99.90;;;;;;5114833;28;20224;-74
2022/10/25 01:13:25;;;;;;;22.90;12.05;;;12.90;99.90;;;;;;5119619;28;20187;-74
2022/10/25 01:16:09;;;;;;;23.48;12.38;;;12.90;99.90;;;;;;5103596;28;20031;-75
2022/10/25 01:18:47;;;;;;;25.45;13.20;;;13.30;99.90;;;;;;5097545;28;20043;-74
2022/10/25 01:21:40;;;;;;;22.60;12.95;;;13.10;99.90;;;;;;5117930;28;20058;-74
2022/10/25 01:24:38;;;;;;;26.55;13.02;;;13.10;99.90;;;;;;5133672;27;20023;-77
2022/10/25 01:27:41;;;;;;;25.17;12.55;;;13.00;99.90;;;;;;5111588;28;20043;-77
2022/10/25 01:30:20;;;;;;;22.63;13.80;;;13.20;99.90;;;;;;5102706;28;20145;-78
2022/10/25 01:33:17;;;;;;;23.00;12.77;;;13.10;99.90;;;;;;5105086;28;20028;-76
2022/10/25 01:35:58;;;;;;;19.60;11.52;;;13.20;99.90;;;;;;5085706;28;20047;-76
2022/10/25 01:38:36;;;;;;;31.05;13.73;;;13.00;99.90;;;;;;5090616;28;20036;-76
2022/10/25 01:41:14;;;;;;;25.38;13.63;;;13.00;99.90;;;;;;5086264;28;20242;-77
2022/10/25 01:43:43;;;;;;;32.45;12.55;;;13.30;99.90;;;;;;5094475;28;20257;-79
2022/10/25 01:46:24;;;;;;;24.40;11.77;;;13.00;99.90;;;;;;5115575;28;20027;-76
2022/10/25 01:49:00;;;;;;;16.38;11.15;;;13.00;99.90;;;;;;5109238;27;20055;-75
2022/10/25 01:51:27;;;;;;;24.42;12.73;;;13.00;99.90;;;;;;5102791;28;20330;-77
2022/10/25 01:53:53;;;;;;;24.50;12.18;;;13.10;99.90;;;;;;5088388;28;20051;-71
2022/10/25 01:56:28;;;;;;;19.92;10.68;;;13.00;99.90;;;;;;5090142;28;20076;-72
2022/10/25 01:59:18;;;;;;;22.80;11.75;;;13.30;99.90;;;;;;5111948;28;20028;-74
2022/10/25 02:01:59;;;;;;;20.35;10.93;;;13.10;99.90;;;;;;5105232;28;20044;-74
2022/10/25 02:04:54;;;;;;;20.90;10.55;;;13.10;99.90;;;;;;5107687;28;20063;-74
2022/10/25 02:07:35;;;;;;;23.30;12.38;;;13.30;99.90;;;;;;5089687;28;20081;-74
2022/10/25 02:10:52;;;;;;;19.65;11.05;;;13.00;99.90;;;;;;5102303;28;20036;-74
2022/10/25 02:13:30;;;;;;;19.27;10.00;;;13.10;99.90;;;;;;5043912;28;20029;-73
2022/10/25 02:16:00;;;;;;;16.63;10.43;;;13.00;99.90;;;;;;5042790;28;20044;-73
2022/10/25 02:23:09;;;;;;;17.05;10.00;;;12.90;99.90;;;;;;5025611;28;20042;-73
2022/10/25 02:26:22;;;;;;;21.27;9.75;;;14.10;99.90;;;;;;5002421;28;20038;-74
2022/10/25 02:32:06;;;;;;;19.42;10.27;;;13.10;99.90;;;;;;5021615;28;20213;-74
2022/10/25 02:34:32;;;;;;;16.92;9.98;;;13.30;99.90;;;;;;5022048;28;20041;-73
2022/10/25 02:37:00;;;;;;;18.35;9.23;;;13.30;99.90;;;;;;5082387;28;20092;-75
2022/10/25 02:39:27;;;;;;;15.52;9.73;;;12.90;99.90;;;;;;5102345;28;20192;-75
2022/10/25 02:41:53;;;;;;;13.60;8.98;;;13.00;99.90;;;;;;5116251;28;20031;-74
2022/10/25 02:44:19;;;;;;;18.10;10.50;;;13.10;99.90;;;;;;5118290;27;20253;-76
2022/10/25 02:46:45;;;;;;;21.90;10.68;;;13.50;99.90;;;;;;5102835;28;20102;-73
2022/10/25 02:49:11;;;;;;;15.95;8.68;;;13.40;99.90;;;;;;5121027;27;20224;-77
2022/10/25 02:51:36;;;;;;;19.67;9.93;;;13.40;99.90;;;;;;5101852;28;20122;-73
2022/10/25 02:54:02;;;;;;;16.25;9.82;;;13.30;99.90;;;;;;5119555;28;20031;-74
2022/10/25 02:56:28;;;;;;;21.08;9.55;;;13.20;99.90;;;;;;5106573;28;20071;-73
2022/10/25 02:58:57;;;;;;;23.55;11.25;;;13.30;99.90;;;;;;5085210;28;20071;-74
2022/10/25 03:01:26;;;;;;;16.75;10.27;;;13.40;99.90;;;;;;5092609;28;20306;-72
2022/10/25 03:03:52;;;;;;;14.77;9.75;;;13.30;99.90;;;;;;5090666;28;20090;-76
2022/10/25 03:06:18;;;;;;;20.38;10.80;;;13.30;99.90;;;;;;5083415;28;20044;-74
2022/10/25 03:08:45;;;;;;;15.15;10.25;;;13.70;99.90;;;;;;5112211;28;20023;-76
2022/10/25 03:11:12;;;;;;;23.08;11.10;;;13.60;99.90;;;;;;5107761;28;20082;-75
2022/10/25 03:14:09;;;;;;;18.98;10.55;;;13.30;99.90;;;;;;5101591;28;20068;-72
2022/10/25 03:16:44;;;;;;;17.00;10.02;;;13.50;99.90;;;;;;5095092;28;20042;-77
2022/10/25 03:19:10;;;;;;;16.20;10.43;;;13.50;99.90;;;;;;5083798;28;20048;-75
2022/10/25 03:21:35;;;;;;;21.02;10.45;;;13.60;99.90;;;;;;5101613;28;20039;-76
2022/10/25 03:24:01;;;;;;;16.58;9.98;;;13.20;99.90;;;;;;5116059;28;20349;-78
2022/10/25 03:26:27;;;;;;;14.85;9.52;;;13.40;99.90;;;;;;5106337;28;20410;-75
2022/10/25 03:28:55;;;;;;;15.82;9.20;;;13.30;99.90;;;;;;5099413;28;20028;-73
2022/10/25 03:31:21;;;;;;;14.85;9.68;;;13.40;99.90;;;;;;5097155;28;20349;-76
2022/10/25 03:33:47;;;;;;;14.93;8.25;;;13.10;99.90;;;;;;5071893;28;20032;-73
2022/10/25 03:36:13;;;;;;;16.17;9.52;;;13.40;99.90;;;;;;5109944;28;20073;-73
2022/10/25 03:38:38;;;;;;;14.27;8.20;;;13.40;99.90;;;;;;5105002;27;20023;-77
2022/10/25 03:41:05;;;;;;;11.77;8.40;;;13.40;99.90;;;;;;5090270;28;20047;-78
2022/10/25 03:43:31;;;;;;;16.83;8.30;;;13.30;99.90;;;;;;5085594;28;20047;-79
2022/10/25 03:45:57;;;;;;;12.85;7.80;;;13.00;99.90;;;;;;5102471;28;20086;-79
2022/10/25 03:48:23;;;;;;;13.20;7.95;;;13.40;99.90;;;;;;5077557;28;20024;-77
2022/10/25 03:50:48;;;;;;;19.50;8.10;;;13.10;99.90;;;;;;5099514;28;20090;-76
2022/10/25 03:53:14;;;;;;;14.65;7.55;;;13.40;99.90;;;;;;5097393;28;20039;-75
2022/10/25 03:55:40;;;;;;;15.25;8.23;;;13.50;99.90;;;;;;5084206;28;20032;-78
2022/10/25 03:58:19;;;;;;;12.52;7.03;;;13.30;99.90;;;;;;5077173;28;20031;-75
2022/10/25 04:00:45;;;;;;;14.90;8.10;;;14.20;99.90;;;;;;5099673;28;21222;-73
2022/10/25 04:03:11;;;;;;;12.82;6.90;;;13.30;99.90;;;;;;5083639;28;20054;-74
2022/10/25 04:05:37;;;;;;;15.00;7.70;;;13.30;99.90;;;;;;5101216;28;20036;-75
2022/10/25 04:08:06;;;;;;;16.80;7.90;;;13.20;99.90;;;;;;5095644;28;20027;-73
2022/10/25 04:10:32;;;;;;;12.10;7.78;;;13.20;99.90;;;;;;5102848;28;20048;-74
2022/10/25 04:12:57;;;;;;;17.88;8.23;;;13.60;99.90;;;;;;5085760;28;20553;-72
2022/10/25 04:15:24;;;;;;;17.42;9.30;;;13.60;99.90;;;;;;5118516;28;20039;-74
2022/10/25 04:17:51;;;;;;;18.88;9.00;;;13.40;99.90;;;;;;5084638;28;20035;-75
2022/10/25 04:20:17;;;;;;;19.58;9.35;;;13.20;99.90;;;;;;5120758;28;20357;-72
2022/10/25 04:22:43;;;;;;;21.08;9.27;;;13.60;99.90;;;;;;5100264;28;20071;-76
2022/10/25 04:25:08;;;;;;;20.80;8.88;;;13.50;99.90;;;;;;5134968;28;20061;-74
2022/10/25 04:27:34;;;;;;;15.13;8.85;;;13.40;99.90;;;;;;5116124;28;20107;-76
2022/10/25 04:30:00;;;;;;;23.27;10.15;;;13.20;99.90;;;;;;5109871;28;20110;-74
2022/10/25 04:32:37;;;;;;;18.48;9.63;;;13.10;99.90;;;;;;5081083;28;20024;-75
2022/10/25 04:35:03;;;;;;;15.90;8.98;;;13.20;99.90;;;;;;5104530;28;20202;-75
2022/10/25 04:37:29;;;;;;;13.98;8.07;;;13.00;99.90;;;;;;5108535;28;20032;-76
2022/10/25 04:39:55;;;;;;;20.65;9.77;;;13.10;99.90;;;;;;5106828;28;20085;-74
2022/10/25 04:42:20;;;;;;;21.65;8.70;;;12.90;99.90;;;;;;5097322;28;20081;-74
2022/10/25 04:44:55;;;;;;;20.55;8.95;;;12.90;99.90;;;;;;5086015;28;20032;-74
2022/10/25 04:47:20;;;;;;;20.40;9.20;;;12.90;99.90;;;;;;5117594;28;20055;-76
2022/10/25 04:49:46;;;;;;;14.95;9.77;;;13.10;99.90;;;;;;5119544;27;20062;-76
2022/10/25 04:52:12;;;;;;;19.02;9.40;;;12.90;99.90;;;;;;5097299;28;20062;-74
2022/10/25 04:54:40;;;;;;;21.52;9.32;;;12.90;99.90;;;;;;5103660;28;20031;-74
2022/10/25 04:57:06;;;;;;;17.17;9.07;;;13.10;99.90;;;;;;5059707;28;20036;-76
2022/10/25 04:59:34;;;;;;;17.02;9.30;;;13.20;99.90;;;;;;5100719;27;20060;-75
2022/10/25 05:02:04;;;;;;;21.60;9.20;;;13.30;99.90;;;;;;5106460;28;20314;-74
2022/10/25 05:04:30;;;;;;;18.15;8.68;;;13.40;99.90;;;;;;5105783;28;20202;-75
2022/10/25 05:07:01;;;;;;;23.67;9.55;;;13.00;99.90;;;;;;5075300;28;20063;-78
2022/10/25 05:13:01;;;;;;;16.67;8.70;;;14.10;99.90;;;;;;5108501;27;20341;-79
2022/10/25 05:15:28;;;;;;;17.45;7.78;;;13.20;99.90;;;;;;5098483;28;20081;-76
2022/10/25 05:17:58;;;;;;;23.17;9.10;;;13.30;99.90;;;;;;5089558;28;20035;-75
2022/10/25 05:20:23;;;;;;;22.15;8.63;;;13.20;99.90;;;;;;5115597;27;20035;-74
2022/10/25 05:22:49;;;;;;;19.05;9.40;;;13.30;99.90;;;;;;5085812;28;20039;-74
2022/10/25 05:25:15;;;;;;;22.55;8.73;;;13.30;99.90;;;;;;5107090;28;20036;-76
2022/10/25 05:27:41;;;;;;;23.55;10.18;;;13.10;99.90;;;;;;5098521;28;20037;-76
2022/10/25 05:30:17;;;;;;;23.35;9.50;;;13.20;99.90;;;;;;5110734;28;20031;-74
2022/10/25 05:32:59;;;;;;;23.40;9.75;;;13.20;99.90;;;;;;5079496;28;20048;-73
2022/10/25 05:36:13;;;;;;;25.08;9.23;;;13.40;99.90;;;;;;5103725;28;20047;-78
2022/10/25 05:38:39;;;;;;;23.88;9.52;;;14.50;99.90;;;;;;5025487;28;20033;-76
2022/10/25 05:41:05;;;;;;;26.52;10.40;;;13.50;99.90;;;;;;5070724;28;20268;-74
2022/10/25 05:43:59;;;;;;;25.83;9.88;;;13.50;99.90;;;;;;5089049;28;20045;-73
2022/10/25 05:50:02;;;;;;;24.52;10.95;;;12.30;99.90;;;;;;5054034;28;20052;-74
2022/10/25 05:52:28;;;;;;;20.30;10.35;;;13.60;99.90;;;;;;5127722;27;20331;-74
2022/10/25 05:54:54;;;;;;;25.92;10.77;;;13.70;99.90;;;;;;5070099;28;20070;-74
2022/10/25 05:57:19;;;;;;;23.95;11.25;;;13.50;99.90;;;;;;5108754;27;20043;-75
2022/10/25 05:59:45;;;;;;;26.52;11.48;;;13.70;99.90;;;;;;5113418;28;20034;-77
2022/10/25 06:02:13;;;;;;;22.40;10.25;;;13.80;99.90;;;;;;5056881;28;20047;-76
2022/10/25 06:04:39;;;;;;;26.42;10.45;;;13.70;99.90;;;;;;5101695;28;20043;-74
2022/10/25 06:07:04;;;;;;;17.58;9.75;;;13.50;99.90;;;;;;5112779;28;20282;-74
2022/10/25 06:09:30;;;;;;;22.13;9.57;;;13.30;99.90;;;;;;5102422;28;20050;-75
2022/10/25 06:11:56;;;;;;;23.45;10.10;;;13.60;99.90;;;;;;5104750;27;20073;-73
2022/10/25 06:14:24;;;;;;;35.80;10.55;;;13.50;99.90;;;;;;5067624;28;20542;-76
2022/10/25 06:16:50;;;;;;;22.27;8.77;;;13.30;99.90;;;;;;5104002;28;20039;-75
2022/10/25 06:19:15;;;;;;;22.88;9.27;;;13.10;99.90;;;;;;5108177;28;20093;-74
2022/10/25 06:21:41;;;;;;;22.08;8.18;;;13.10;99.90;;;;;;5092558;28;20063;-74
2022/10/25 06:24:08;;;;;;;20.23;9.18;;;13.20;99.90;;;;;;5089161;28;20058;-73
2022/10/25 06:26:33;;;;;;;24.55;8.52;;;13.30;99.90;;;;;;5084810;28;20036;-73
2022/10/25 06:29:01;;;;;;;20.20;8.27;;;13.40;99.90;;;;;;5078249;28;20103;-74
2022/10/25 06:31:28;;;;;;;27.17;8.32;;;13.10;99.90;;;;;;5107455;28;20024;-74
2022/10/25 06:33:55;;;;;;;20.88;8.25;;;13.50;99.90;;;;;;5087374;28;20042;-75
2022/10/25 06:36:23;;;;;;;15.48;8.32;;;13.20;99.90;;;;;;5067991;28;20040;-74
2022/10/25 06:38:49;;;;;;;17.73;8.43;;;13.30;99.90;;;;;;5087940;28;20035;-77
2022/10/25 06:41:20;;;;;;;18.77;7.38;;;13.20;99.90;;;;;;5115137;28;20035;-73
2022/10/25 06:43:47;;;;;;;17.05;7.90;;;13.40;99.90;;;;;;5086353;28;20034;-74
2022/10/25 06:46:31;;;;;;;19.50;8.18;;;13.20;99.90;;;;;;5103923;28;20309;-74
2022/10/25 06:49:04;;;;;;;15.18;7.55;;;13.30;99.90;;;;;;5104312;28;20111;-74
2022/10/25 06:51:32;;;;;;;15.98;7.13;;;13.10;99.90;;;;;;5101573;28;20112;-77
2022/10/25 06:54:00;;;;;;;15.95;8.15;;;13.10;99.90;;;;;;5108966;28;20036;-77
2022/10/25 06:56:27;;;;;;;22.42;8.60;;;13.10;99.90;;;;;;5104766;28;20114;-74
2022/10/25 06:58:54;;;;;;;21.50;7.57;;;13.50;99.90;;;;;;5108543;28;20044;-76
2022/10/25 07:01:21;;;;;;;16.13;7.70;;;13.50;99.90;;;;;;5094249;27;20046;-75
2022/10/25 07:03:49;;;;;;;18.02;7.28;;;13.10;99.90;;;;;;5121486;27;20050;-73
2022/10/25 07:06:32;;;;;;;13.05;7.40;;;13.10;99.90;;;;;;5100894;28;20059;-75
2022/10/25 07:08:59;;;;;;;13.55;6.53;;;13.80;99.90;;;;;;5100598;28;20062;-75
2022/10/25 07:11:26;;;;;;;17.00;6.63;;;13.50;99.90;;;;;;5090728;27;20390;-75
2022/10/25 07:13:52;;;;;;;19.30;7.10;;;13.40;99.90;;;;;;5110691;28;20051;-76
2022/10/25 07:16:19;;;;;;;19.55;6.63;;;13.20;99.90;;;;;;5100997;28;20532;-75
2022/10/25 07:19:17;;;;;;;13.10;6.47;;;13.30;99.90;;;;;;5102483;28;20031;-77
2022/10/25 07:21:43;;;;;;;13.25;6.00;;;13.40;99.90;;;;;;5111714;27;20261;-76
2022/10/25 07:24:10;;;;;;;15.63;6.18;;;13.70;99.90;;;;;;5087699;28;20110;-74
2022/10/25 07:26:39;;;;;;;13.70;6.13;;;13.50;99.90;;;;;;5092940;28;20072;-73
2022/10/25 07:29:05;;;;;;;16.50;5.95;;;13.40;99.90;;;;;;5103064;28;20032;-76
2022/10/25 07:31:33;;;;;;;13.57;5.57;;;13.50;99.90;;;;;;5077429;28;20262;-74
2022/10/25 07:34:24;;;;;;;13.75;5.45;;;13.50;99.90;;;;;;5104969;28;20401;-75
2022/10/25 07:36:53;;;;;;;15.32;5.97;;;12.40;99.90;;;;;;5068320;28;20044;-71
2022/10/25 07:39:18;;;;;;;16.55;6.47;;;13.40;99.90;;;;;;5099038;28;20039;-73
2022/10/25 07:41:46;;;;;;;11.80;5.65;;;13.50;99.90;;;;;;5106456;28;20100;-75
2022/10/25 07:44:12;;;;;;;14.63;5.03;;;13.90;99.90;;;;;;5098905;28;20297;-75
2022/10/25 07:46:38;;;;;;;14.18;5.03;;;13.50;99.90;;;;;;5108313;28;20074;-75
2022/10/25 07:49:03;;;;;;;9.95;4.70;;;13.90;99.90;;;;;;5091778;28;20024;-75
2022/10/25 07:51:29;;;;;;;12.13;5.38;;;14.00;99.90;;;;;;5105973;28;20067;-74
2022/10/25 07:53:55;;;;;;;13.27;4.78;;;14.40;99.90;;;;;;5092489;28;20114;-74
2022/10/25 07:56:20;;;;;;;13.77;4.50;;;14.40;99.90;;;;;;5109023;28;20037;-73
2022/10/25 07:58:46;;;;;;;13.77;4.80;;;14.40;99.90;;;;;;5118550;27;20058;-75
2022/10/25 08:01:17;;;;;;;8.77;4.43;;;14.30;99.90;;;;;;5120166;28;20255;-73
2022/10/25 08:03:43;;;;;;;11.13;4.30;;;14.20;99.90;;;;;;5113575;28;20032;-74
2022/10/25 08:06:09;;;;;;;8.98;4.43;;;14.60;99.90;;;;;;5087823;28;20048;-77
2022/10/25 08:08:37;;;;;;;10.68;4.32;;;14.50;99.90;;;;;;5084830;28;20031;-76
2022/10/25 08:11:06;;;;;;;8.35;4.07;;;14.40;99.90;;;;;;5083972;28;20027;-76
2022/10/25 08:13:36;;;;;;;10.60;4.05;;;14.50;99.90;;;;;;5119469;28;20137;-75
2022/10/25 08:16:03;;;;;;;9.90;3.80;;;14.60;99.90;;;;;;5118882;28;20374;-75
2022/10/25 08:22:16;;;;;;;10.10;3.83;;;14.70;99.90;;;;;;4957994;29;20050;-74
2022/10/25 08:24:42;;;;;;;9.30;3.65;;;14.80;99.90;;;;;;4943732;29;20047;-74
2022/10/25 08:27:08;;;;;;;9.85;3.97;;;14.70;99.90;;;;;;5066820;28;20187;-75
2022/10/25 08:29:34;;;;;;;9.65;4.13;;;14.90;99.90;;;;;;5102406;28;20062;-75
2022/10/25 08:32:00;;;;;;;9.82;4.60;;;14.90;99.90;;;;;;5068120;28;20031;-75
2022/10/25 08:34:25;;;;;;;9.63;4.00;;;15.30;99.90;;;;;;5068760;28;20036;-76
2022/10/25 08:36:51;;;;;;;13.15;4.45;;;15.10;99.90;;;;;;5085424;28;20081;-75
2022/10/25 08:39:17;;;;;;;10.15;4.10;;;14.90;99.90;;;;;;5085075;28;20332;-74
2022/10/25 08:41:56;;;;;;;13.50;4.43;;;14.80;99.90;;;;;;5102100;28;20050;-74
2022/10/25 08:44:33;;;;;;;12.75;4.97;;;14.80;99.90;;;;;;5102283;28;20073;-73
2022/10/25 08:47:09;;;;;;;12.52;4.40;;;14.70;99.90;;;;;;5084095;28;20040;-73
2022/10/25 08:53:22;;;;;;;12.10;5.00;;;14.10;99.90;;;;;;5118816;28;20050;-75
2022/10/25 08:55:49;;;;;;;13.10;4.22;;;15.20;99.90;;;;;;5085098;28;20043;-76
2022/10/25 08:58:31;;;;;;;15.68;4.93;;;15.40;99.90;;;;;;5092869;28;20027;-78
2022/10/25 09:01:19;;;;;;;9.18;4.57;;;15.30;99.90;;;;;;5102717;28;20042;-75
2022/10/25 09:03:45;;;;;;;11.13;4.78;;;15.30;99.90;;;;;;5101930;28;20039;-76
2022/10/25 09:06:44;;;;;;;16.08;4.90;;;15.50;99.90;;;;;;5095586;28;20044;-76
2022/10/25 09:09:41;;;;;;;11.75;4.38;;;15.40;99.90;;;;;;5087227;28;20039;-75
2022/10/25 09:12:43;;;;;;;8.80;4.50;;;15.20;99.90;;;;;;5118137;28;20325;-76
2022/10/25 09:16:13;;;;;;;9.65;4.45;;;15.20;99.90;;;;;;5040963;28;20041;-76
2022/10/25 09:18:53;;;;;;;14.30;4.75;;;14.60;99.90;;;;;;5065090;28;20092;-76
2022/10/25 09:21:31;;;;;;;12.82;5.03;;;15.40;99.90;;;;;;5112007;28;20027;-75
2022/10/25 09:24:00;;;;;;;16.38;5.40;;;15.50;99.90;;;;;;5114777;28;20359;-74
2022/10/25 09:26:42;;;;;;;13.88;5.13;;;15.20;99.90;;;;;;5126572;27;20115;-74
2022/10/25 09:29:17;;;;;;;12.70;5.32;;;15.10;99.90;;;;;;5116528;28;20302;-74
2022/10/25 09:31:49;;;;;;;12.82;5.22;;;15.20;99.90;;;;;;5095877;28;20222;-72
2022/10/25 09:34:18;;;;;;;12.05;4.43;;;15.20;99.90;;;;;;5084653;28;20036;-74
2022/10/25 09:36:47;;;;;;;12.07;5.07;;;15.40;99.90;;;;;;5101988;28;20051;-73
2022/10/25 09:39:37;;;;;;;14.90;4.72;;;15.50;99.90;;;;;;5084471;28;20322;-73
2022/10/25 09:42:06;;;;;;;13.15;5.50;;;15.50;99.90;;;;;;5101252;28;20040;-74
2022/10/25 09:44:42;;;;;;;12.88;5.50;;;15.40;99.90;;;;;;5101944;28;20036;-75
2022/10/25 09:47:39;;;;;;;10.57;4.97;;;15.50;99.90;;;;;;5101090;28;20090;-74
2022/10/25 09:50:23;;;;;;;14.05;4.68;;;15.50;99.90;;;;;;5084145;28;20036;-74
2022/10/25 09:53:18;;;;;;;13.45;4.93;;;15.70;99.90;;;;;;5084410;28;20190;-74
2022/10/25 09:55:54;;;;;;;9.68;4.30;;;15.60;99.90;;;;;;5101173;28;20079;-74
2022/10/25 09:58:33;;;;;;;8.98;4.25;;;15.80;99.90;;;;;;5104519;28;20063;-74
2022/10/25 10:01:06;;;;;;;13.13;4.65;;;15.60;99.90;;;;;;5104243;28;20517;-74
2022/10/25 10:03:35;;;;;;;10.15;3.88;;;15.70;99.90;;;;;;5104916;28;20097;-74
2022/10/25 10:06:10;;;;;;;11.93;3.80;;;15.80;99.90;;;;;;5087300;28;20047;-74
2022/10/25 10:08:37;;;;;;;7.57;3.58;;;15.80;99.90;;;;;;5087861;28;20040;-73
2022/10/25 10:11:04;;;;;;;14.90;4.28;;;15.70;99.90;;;;;;5103825;28;20069;-74
2022/10/25 10:13:45;;;;;;;11.15;3.38;;;15.50;99.90;;;;;;5087640;28;20031;-75
2022/10/25 10:16:34;;;;;;;13.90;3.30;;;15.50;99.90;;;;;;5103609;28;20038;-77
2022/10/25 10:19:13;;;;;;;10.18;3.15;;;15.40;99.90;;;;;;5074071;28;20134;-74
2022/10/25 10:21:43;;;;;;;14.60;4.25;;;15.50;99.90;;;;;;5104327;28;20329;-75
2022/10/25 10:24:31;;;;;;;9.60;3.20;;;15.40;99.90;;;;;;5086569;28;20041;-75
2022/10/25 10:27:06;;;;;;;11.57;3.53;;;15.60;99.90;;;;;;5086685;28;20203;-75
2022/10/25 10:29:35;;;;;;;6.10;2.97;;;15.70;99.90;;;;;;5104132;28;20043;-75
2022/10/25 10:32:05;;;;;;;8.30;3.20;;;15.90;99.90;;;;;;5085677;28;20036;-75
2022/10/25 10:34:37;;;;;;;12.77;3.10;;;16.00;99.90;;;;;;5103589;28;20086;-74
2022/10/25 10:37:21;;;;;;;7.80;2.80;;;16.30;99.90;;;;;;5103222;28;20273;-74
2022/10/25 10:39:48;;;;;;;9.55;2.47;;;16.30;99.90;;;;;;5086792;28;20241;-75
2022/10/25 10:42:19;;;;;;;11.20;2.65;;;16.20;99.90;;;;;;5086226;28;20071;-73
2022/10/25 10:45:06;;;;;;;11.32;2.45;;;16.20;99.90;;;;;;5087027;28;20031;-76
2022/10/25 10:47:49;;;;;;;8.85;2.38;;;16.00;99.90;;;;;;5086973;28;20206;-72
2022/10/25 10:50:21;;;;;;;8.27;2.63;;;16.20;99.90;;;;;;5086338;28;20031;-74
2022/10/25 10:52:55;;;;;;;9.48;2.38;;;16.40;99.90;;;;;;5103549;28;20059;-75
2022/10/25 10:55:26;;;;;;;10.68;2.40;;;16.60;99.90;;;;;;5086339;28;20111;-75
2022/10/25 10:57:54;;;;;;;6.47;2.35;;;16.50;99.90;;;;;;5096669;28;20036;-74
2022/10/25 11:00:26;;;;;;;8.68;2.85;;;16.30;99.90;;;;;;5103120;28;20031;-74
2022/10/25 11:02:55;;;;;;;7.00;1.90;;;16.20;99.90;;;;;;5103383;28;20082;-75
2022/10/25 11:08:29;;;;;;;10.52;1.80;;;17.20;99.90;;;;;;5107224;28;20039;-74
2022/10/25 11:11:17;;;;;;;6.95;1.70;;;16.30;99.90;;;;;;5103110;28;20035;-74
2022/10/25 11:13:51;;;;;;;7.22;2.10;;;16.30;99.90;;;;;;5103565;28;20077;-75
2022/10/25 11:16:36;;;;;;;7.05;2.20;;;16.30;99.90;;;;;;5119627;28;20073;-75
2022/10/25 11:23:39;;;;;;;7.82;1.92;;;16.50;99.90;;;;;;5086494;28;20106;-73
2022/10/25 11:26:33;;;;;;;11.63;2.15;;;16.30;99.90;;;;;;5021124;28;20045;-74
2022/10/25 11:29:14;;;;;;;7.65;2.60;;;16.40;99.90;;;;;;5031466;28;20117;-75
2022/10/25 11:31:54;;;;;;;8.15;2.03;;;16.30;99.90;;;;;;5083591;28;20107;-75
2022/10/25 11:34:40;;;;;;;5.60;1.80;;;16.10;99.90;;;;;;5119635;28;20063;-75
2022/10/25 11:37:42;;;;;;;9.27;1.63;;;16.30;99.90;;;;;;5119207;28;20106;-76
2022/10/25 11:40:17;;;;;;;10.63;1.90;;;16.10;99.90;;;;;;5102271;28;20043;-74
2022/10/25 11:43:13;;;;;;;6.93;2.05;;;16.10;99.90;;;;;;5119980;28;20106;-75
2022/10/25 11:45:47;;;;;;;7.60;1.80;;;16.10;99.90;;;;;;5081834;28;20055;-75
2022/10/25 11:48:18;;;;;;;10.32;2.65;;;16.10;99.90;;;;;;5119279;28;20038;-75
2022/10/25 11:51:18;;;;;;;6.57;2.00;;;16.20;99.90;;;;;;5119367;28;20111;-75
2022/10/25 11:54:24;;;;;;;8.93;1.98;;;16.30;99.90;;;;;;5119538;28;20044;-74
2022/10/25 11:57:03;;;;;;;8.27;1.90;;;16.00;99.90;;;;;;5119718;28;20047;-74
2022/10/25 11:59:36;;;;;;;8.85;2.20;;;16.00;99.90;;;;;;5098879;28;20134;-67
2022/10/25 12:02:30;;;;;;;8.65;2.33;;;16.10;99.90;;;;;;5098836;28;20046;-76
2022/10/25 12:05:33;;;;;;;8.40;1.80;;;16.10;99.90;;;;;;5081908;28;20040;-75
2022/10/25 12:08:28;;;;;;;5.82;2.10;;;16.20;99.90;;;;;;5081893;28;20115;-73
2022/10/25 12:11:23;;;;;;;6.53;2.50;;;16.30;99.90;;;;;;5115884;28;20040;-74
2022/10/25 12:13:52;;;;;;;6.13;1.98;;;16.50;99.90;;;;;;5097556;28;20098;-73
2022/10/25 12:16:20;;;;;;;5.93;2.30;;;16.40;99.90;;;;;;5098745;28;20035;-72
2022/10/25 12:18:50;;;;;;;8.95;2.28;;;16.40;99.90;;;;;;5099117;28;20032;-74
2022/10/25 12:21:23;;;;;;;8.85;2.33;;;16.30;99.90;;;;;;5081405;28;20032;-71
2022/10/25 12:23:52;;;;;;;4.70;1.80;;;16.30;99.90;;;;;;5099061;28;20206;-73
2022/10/25 12:26:50;;;;;;;;;;;;;;;;;;;;;
2022/10/25 12:29:41;;;;;;;6.03;2.15;;;16.20;99.90;;;;;;5058485;28;20035;-74
2022/10/25 12:32:49;;;;;;;8.23;2.17;;;16.20;99.90;;;;;;5098046;28;20040;-74
2022/10/25 12:35:26;;;;;;;7.93;1.90;;;15.50;99.90;;;;;;5098063;28;20032;-73
2022/10/25 12:37:55;;;;;;;6.80;2.10;;;16.20;99.90;;;;;;5098786;28;20103;-74
2022/10/25 12:40:23;;;;;;;8.00;2.00;;;16.20;99.90;;;;;;5098453;28;20210;-75
2022/10/25 12:42:54;;;;;;;6.82;1.80;;;16.10;99.90;;;;;;5098845;28;20055;-76
2022/10/25 12:45:37;;;;;;;6.82;2.03;;;16.10;99.90;;;;;;5098515;28;20267;-73
2022/10/25 12:48:27;;;;;;;7.88;1.70;;;16.20;99.90;;;;;;5098580;28;20066;-72
2022/10/25 12:51:13;;;;;;;3.83;1.75;;;16.10;99.90;;;;;;5098509;28;20040;-74
2022/10/25 12:53:56;;;;;;;8.40;1.73;;;16.10;99.90;;;;;;5098908;28;20047;-72
2022/10/25 12:56:31;;;;;;;7.97;2.10;;;16.10;99.90;;;;;;5100706;28;20090;-73
2022/10/25 12:59:29;;;;;;;6.53;1.90;;;16.10;99.90;;;;;;5105730;28;20097;-74
2022/10/25 13:01:55;;;;;;;8.30;1.73;;;16.20;99.90;;;;;;5084006;28;20424;-73
2022/10/25 13:04:43;;;;;;;4.57;1.77;;;16.30;99.90;;;;;;5120639;28;20035;-74
2022/10/25 13:07:10;;;;;;;6.57;1.77;;;16.30;99.90;;;;;;5122304;28;20043;-74
2022/10/25 13:09:37;;;;;;;6.18;1.50;;;16.20;99.90;;;;;;5089112;28;20043;-74
2022/10/25 13:16:50;;;;;;;3.47;1.65;;;16.60;99.90;;;;;;5094795;27;20217;-75
2022/10/25 13:19:22;;;;;;;5.38;1.65;;;18.00;99.90;;;;;;5121748;28;20128;-72
2022/10/25 13:22:23;;;;;;;6.20;2.05;;;16.30;99.90;;;;;;5105384;28;20054;-73
2022/10/25 13:24:54;;;;;;;7.18;2.08;;;16.40;99.90;;;;;;5089816;28;20376;-74
2022/10/25 13:27:24;;;;;;;7.47;2.50;;;16.50;99.90;;;;;;5121752;28;20176;-72
2022/10/25 13:30:06;;;;;;;8.45;2.60;;;16.40;99.90;;;;;;5122525;28;20053;-75
2022/10/25 13:32:37;;;;;;;7.30;2.05;;;16.30;99.90;;;;;;5122106;28;20055;-72
2022/10/25 13:35:26;;;;;;;4.68;2.00;;;16.20;99.90;;;;;;5104970;28;20036;-74
2022/10/25 13:37:54;;;;;;;4.28;2.00;;;16.20;99.90;;;;;;5084418;28;20040;-73
2022/10/25 13:40:22;;;;;;;9.52;2.40;;;16.30;99.90;;;;;;5121910;28;20102;-71
2022/10/25 13:43:00;;;;;;;4.70;2.45;;;16.40;99.90;;;;;;5122166;28;20032;-75
2022/10/25 13:45:33;;;;;;;7.10;2.65;;;16.50;99.90;;;;;;5104639;28;20093;-75
2022/10/25 13:48:27;;;;;;;9.65;2.72;;;16.50;99.90;;;;;;5121815;28;20036;-73